sensor_id;sensor_type;location;lat;lon;timestamp;P1;durP1;ratioP1;P2;durP2;ratioP2
42104;SDS011;61464;51.472;5.712;2022-09-24T00:01:22;25.63;;;17.33;;
42104;SDS011;61464;51.472;5.712;2022-09-24T00:03:52;27.52;;;17.88;;
42104;SDS011;61464;51.472;5.712;2022-09-24T00:06:24;24.48;;;17.10;;
42104;SDS011;61464;51.472;5.712;2022-09-24T00:08:52;24.73;;;17.58;;
42104;SDS011;61464;51.472;5.712;2022-09-24T00:11:20;23.70;;;17.15;;
42104;SDS011;61464;51.472;5.712;2022-09-24T00:13:51;26.77;;;17.00;;
42104;SDS011;61464;51.472;5.712;2022-09-24T00:16:19;22.95;;;16.27;;
42104;SDS011;61464;51.472;5.712;2022-09-24T00:18:46;24.05;;;16.42;;
42104;SDS011;61464;51.472;5.712;2022-09-24T00:21:20;28.73;;;17.67;;
42104;SDS011;61464;51.472;5.712;2022-09-24T00:23:48;27.95;;;17.15;;
42104;SDS011;61464;51.472;5.712;2022-09-24T00:26:17;23.65;;;16.45;;
42104;SDS011;61464;51.472;5.712;2022-09-24T00:31:28;26.10;;;17.27;;
42104;SDS011;61464;51.472;5.712;2022-09-24T00:33:56;22.08;;;16.38;;
42104;SDS011;61464;51.472;5.712;2022-09-24T00:36:22;24.60;;;17.20;;
42104;SDS011;61464;51.472;5.712;2022-09-24T00:38:49;26.15;;;17.08;;
42104;SDS011;61464;51.472;5.712;2022-09-24T00:41:17;26.15;;;16.70;;
42104;SDS011;61464;51.472;5.712;2022-09-24T00:43:44;25.58;;;17.23;;
42104;SDS011;61464;51.472;5.712;2022-09-24T00:49:18;24.17;;;16.20;;
42104;SDS011;61464;51.472;5.712;2022-09-24T00:51:46;25.42;;;16.35;;
42104;SDS011;61464;51.472;5.712;2022-09-24T00:54:16;23.17;;;16.17;;
42104;SDS011;61464;51.472;5.712;2022-09-24T00:56:50;25.40;;;17.30;;
42104;SDS011;61464;51.472;5.712;2022-09-24T00:59:18;23.80;;;16.63;;
42104;SDS011;61464;51.472;5.712;2022-09-24T01:01:48;29.45;;;18.65;;
42104;SDS011;61464;51.472;5.712;2022-09-24T01:04:21;25.48;;;17.23;;
42104;SDS011;61464;51.472;5.712;2022-09-24T01:06:48;30.23;;;17.75;;
42104;SDS011;61464;51.472;5.712;2022-09-24T01:09:15;25.92;;;17.83;;
42104;SDS011;61464;51.472;5.712;2022-09-24T01:14:33;29.50;;;19.00;;
42104;SDS011;61464;51.472;5.712;2022-09-24T01:17:48;29.30;;;19.48;;
42104;SDS011;61464;51.472;5.712;2022-09-24T01:35:02;28.52;;;18.98;;
42104;SDS011;61464;51.472;5.712;2022-09-24T01:38:08;27.52;;;19.27;;
42104;SDS011;61464;51.472;5.712;2022-09-24T01:40:49;28.80;;;19.05;;
42104;SDS011;61464;51.472;5.712;2022-09-24T01:43:19;26.38;;;19.40;;
42104;SDS011;61464;51.472;5.712;2022-09-24T01:45:52;30.20;;;21.05;;
42104;SDS011;61464;51.472;5.712;2022-09-24T01:48:25;30.80;;;20.30;;
42104;SDS011;61464;51.472;5.712;2022-09-24T01:53:42;28.02;;;19.50;;
42104;SDS011;61464;51.472;5.712;2022-09-24T01:56:30;30.48;;;19.00;;
42104;SDS011;61464;51.472;5.712;2022-09-24T01:59:03;28.07;;;19.47;;
42104;SDS011;61464;51.472;5.712;2022-09-24T02:01:35;28.40;;;19.35;;
42104;SDS011;61464;51.472;5.712;2022-09-24T02:04:15;29.30;;;20.20;;
42104;SDS011;61464;51.472;5.712;2022-09-24T02:06:55;32.58;;;19.77;;
42104;SDS011;61464;51.472;5.712;2022-09-24T02:09:35;31.38;;;19.95;;
42104;SDS011;61464;51.472;5.712;2022-09-24T02:12:52;28.95;;;19.88;;
42104;SDS011;61464;51.472;5.712;2022-09-24T02:15:09;34.15;;;21.10;;
42104;SDS011;61464;51.472;5.712;2022-09-24T02:17:43;33.65;;;21.67;;
42104;SDS011;61464;51.472;5.712;2022-09-24T02:20:14;36.47;;;21.88;;
42104;SDS011;61464;51.472;5.712;2022-09-24T02:22:44;31.27;;;22.05;;
42104;SDS011;61464;51.472;5.712;2022-09-24T02:25:12;41.33;;;22.35;;
42104;SDS011;61464;51.472;5.712;2022-09-24T02:27:44;34.78;;;22.70;;
42104;SDS011;61464;51.472;5.712;2022-09-24T02:30:10;33.13;;;22.98;;
42104;SDS011;61464;51.472;5.712;2022-09-24T02:32:38;35.17;;;22.48;;
42104;SDS011;61464;51.472;5.712;2022-09-24T02:35:07;36.10;;;22.77;;
42104;SDS011;61464;51.472;5.712;2022-09-24T02:37:36;38.08;;;23.88;;
42104;SDS011;61464;51.472;5.712;2022-09-24T02:40:05;36.60;;;23.42;;
42104;SDS011;61464;51.472;5.712;2022-09-24T02:42:35;36.33;;;24.95;;
42104;SDS011;61464;51.472;5.712;2022-09-24T02:45:02;37.97;;;25.10;;
42104;SDS011;61464;51.472;5.712;2022-09-24T02:47:29;40.28;;;27.00;;
42104;SDS011;61464;51.472;5.712;2022-09-24T02:49:55;45.13;;;26.67;;
42104;SDS011;61464;51.472;5.712;2022-09-24T02:52:21;40.30;;;26.45;;
42104;SDS011;61464;51.472;5.712;2022-09-24T02:54:48;46.22;;;27.55;;
42104;SDS011;61464;51.472;5.712;2022-09-24T02:57:15;40.33;;;27.48;;
42104;SDS011;61464;51.472;5.712;2022-09-24T02:59:42;46.17;;;28.45;;
42104;SDS011;61464;51.472;5.712;2022-09-24T03:02:09;41.40;;;28.15;;
42104;SDS011;61464;51.472;5.712;2022-09-24T03:04:35;49.72;;;29.83;;
42104;SDS011;61464;51.472;5.712;2022-09-24T03:07:01;48.47;;;30.40;;
42104;SDS011;61464;51.472;5.712;2022-09-24T03:09:27;47.40;;;29.70;;
42104;SDS011;61464;51.472;5.712;2022-09-24T03:11:52;50.72;;;30.92;;
42104;SDS011;61464;51.472;5.712;2022-09-24T03:14:19;49.42;;;30.90;;
42104;SDS011;61464;51.472;5.712;2022-09-24T03:16:45;47.90;;;30.95;;
42104;SDS011;61464;51.472;5.712;2022-09-24T03:19:11;49.22;;;31.77;;
42104;SDS011;61464;51.472;5.712;2022-09-24T03:21:37;48.53;;;31.00;;
42104;SDS011;61464;51.472;5.712;2022-09-24T03:24:02;52.40;;;32.97;;
42104;SDS011;61464;51.472;5.712;2022-09-24T03:26:28;53.35;;;32.67;;
42104;SDS011;61464;51.472;5.712;2022-09-24T03:28:54;52.58;;;32.30;;
42104;SDS011;61464;51.472;5.712;2022-09-24T03:31:20;51.83;;;32.55;;
42104;SDS011;61464;51.472;5.712;2022-09-24T03:33:48;53.60;;;32.08;;
42104;SDS011;61464;51.472;5.712;2022-09-24T03:36:24;52.03;;;32.75;;
42104;SDS011;61464;51.472;5.712;2022-09-24T03:38:51;56.67;;;34.85;;
42104;SDS011;61464;51.472;5.712;2022-09-24T03:41:20;54.72;;;33.42;;
42104;SDS011;61464;51.472;5.712;2022-09-24T03:43:47;53.80;;;31.83;;
42104;SDS011;61464;51.472;5.712;2022-09-24T03:46:13;53.80;;;33.78;;
42104;SDS011;61464;51.472;5.712;2022-09-24T03:48:41;51.97;;;32.28;;
42104;SDS011;61464;51.472;5.712;2022-09-24T03:51:08;51.63;;;31.48;;
42104;SDS011;61464;51.472;5.712;2022-09-24T03:53:37;50.45;;;32.78;;
42104;SDS011;61464;51.472;5.712;2022-09-24T03:56:03;50.10;;;31.23;;
42104;SDS011;61464;51.472;5.712;2022-09-24T03:58:31;50.83;;;32.00;;
42104;SDS011;61464;51.472;5.712;2022-09-24T04:01:01;49.55;;;30.40;;
42104;SDS011;61464;51.472;5.712;2022-09-24T04:03:29;50.10;;;30.65;;
42104;SDS011;61464;51.472;5.712;2022-09-24T04:05:54;56.40;;;32.17;;
42104;SDS011;61464;51.472;5.712;2022-09-24T04:08:20;49.78;;;32.08;;
42104;SDS011;61464;51.472;5.712;2022-09-24T04:10:48;51.88;;;31.75;;
42104;SDS011;61464;51.472;5.712;2022-09-24T04:13:15;49.90;;;31.30;;
42104;SDS011;61464;51.472;5.712;2022-09-24T04:15:42;47.55;;;31.55;;
42104;SDS011;61464;51.472;5.712;2022-09-24T04:18:08;50.47;;;32.13;;
42104;SDS011;61464;51.472;5.712;2022-09-24T04:20:35;48.15;;;31.27;;
42104;SDS011;61464;51.472;5.712;2022-09-24T04:23:01;51.83;;;31.65;;
42104;SDS011;61464;51.472;5.712;2022-09-24T04:25:28;49.67;;;31.08;;
42104;SDS011;61464;51.472;5.712;2022-09-24T04:27:57;48.17;;;30.92;;
42104;SDS011;61464;51.472;5.712;2022-09-24T04:30:26;49.53;;;31.52;;
42104;SDS011;61464;51.472;5.712;2022-09-24T04:32:53;51.10;;;31.15;;
42104;SDS011;61464;51.472;5.712;2022-09-24T04:35:20;50.15;;;31.17;;
42104;SDS011;61464;51.472;5.712;2022-09-24T04:37:48;48.85;;;29.98;;
42104;SDS011;61464;51.472;5.712;2022-09-24T04:40:14;51.60;;;29.77;;
42104;SDS011;61464;51.472;5.712;2022-09-24T04:42:41;46.95;;;29.67;;
42104;SDS011;61464;51.472;5.712;2022-09-24T04:45:11;46.55;;;29.02;;
42104;SDS011;61464;51.472;5.712;2022-09-24T04:47:41;46.60;;;29.23;;
42104;SDS011;61464;51.472;5.712;2022-09-24T04:50:08;44.88;;;29.58;;
42104;SDS011;61464;51.472;5.712;2022-09-24T04:52:35;42.35;;;27.33;;
42104;SDS011;61464;51.472;5.712;2022-09-24T04:55:03;44.08;;;28.67;;
42104;SDS011;61464;51.472;5.712;2022-09-24T04:57:29;48.72;;;29.25;;
42104;SDS011;61464;51.472;5.712;2022-09-24T04:59:59;48.00;;;29.20;;
42104;SDS011;61464;51.472;5.712;2022-09-24T05:02:25;41.28;;;27.48;;
42104;SDS011;61464;51.472;5.712;2022-09-24T05:04:51;44.78;;;27.27;;
42104;SDS011;61464;51.472;5.712;2022-09-24T05:07:16;41.17;;;25.58;;
42104;SDS011;61464;51.472;5.712;2022-09-24T05:09:42;44.22;;;29.00;;
42104;SDS011;61464;51.472;5.712;2022-09-24T05:12:08;45.53;;;28.42;;
42104;SDS011;61464;51.472;5.712;2022-09-24T05:14:34;44.28;;;27.48;;
42104;SDS011;61464;51.472;5.712;2022-09-24T05:16:59;40.85;;;26.85;;
42104;SDS011;61464;51.472;5.712;2022-09-24T05:19:25;39.72;;;27.30;;
42104;SDS011;61464;51.472;5.712;2022-09-24T05:21:51;39.60;;;26.70;;
42104;SDS011;61464;51.472;5.712;2022-09-24T05:24:17;45.15;;;27.95;;
42104;SDS011;61464;51.472;5.712;2022-09-24T05:26:42;41.45;;;27.33;;
42104;SDS011;61464;51.472;5.712;2022-09-24T05:29:27;42.27;;;25.87;;
42104;SDS011;61464;51.472;5.712;2022-09-24T05:31:52;40.25;;;26.30;;
42104;SDS011;61464;51.472;5.712;2022-09-24T05:34:18;41.03;;;24.42;;
42104;SDS011;61464;51.472;5.712;2022-09-24T05:36:44;40.25;;;25.85;;
42104;SDS011;61464;51.472;5.712;2022-09-24T05:39:10;41.42;;;27.77;;
42104;SDS011;61464;51.472;5.712;2022-09-24T05:41:39;42.10;;;28.42;;
42104;SDS011;61464;51.472;5.712;2022-09-24T05:44:05;41.47;;;28.13;;
42104;SDS011;61464;51.472;5.712;2022-09-24T05:46:31;43.92;;;27.77;;
42104;SDS011;61464;51.472;5.712;2022-09-24T05:48:58;43.03;;;28.80;;
42104;SDS011;61464;51.472;5.712;2022-09-24T05:51:24;44.03;;;27.85;;
42104;SDS011;61464;51.472;5.712;2022-09-24T05:53:50;43.65;;;28.50;;
42104;SDS011;61464;51.472;5.712;2022-09-24T05:56:16;51.15;;;29.67;;
42104;SDS011;61464;51.472;5.712;2022-09-24T05:58:42;48.35;;;29.30;;
42104;SDS011;61464;51.472;5.712;2022-09-24T06:01:08;44.67;;;28.73;;
42104;SDS011;61464;51.472;5.712;2022-09-24T06:03:33;47.15;;;30.73;;
42104;SDS011;61464;51.472;5.712;2022-09-24T06:05:59;43.53;;;29.23;;
42104;SDS011;61464;51.472;5.712;2022-09-24T06:08:29;47.60;;;29.85;;
42104;SDS011;61464;51.472;5.712;2022-09-24T06:11:04;45.55;;;28.75;;
42104;SDS011;61464;51.472;5.712;2022-09-24T06:13:32;46.22;;;29.58;;
42104;SDS011;61464;51.472;5.712;2022-09-24T06:16:02;49.35;;;30.10;;
42104;SDS011;61464;51.472;5.712;2022-09-24T06:18:33;47.53;;;30.60;;
42104;SDS011;61464;51.472;5.712;2022-09-24T06:21:03;46.88;;;29.38;;
42104;SDS011;61464;51.472;5.712;2022-09-24T06:23:32;45.30;;;28.90;;
42104;SDS011;61464;51.472;5.712;2022-09-24T06:26:02;44.97;;;28.58;;
42104;SDS011;61464;51.472;5.712;2022-09-24T06:28:31;45.47;;;29.17;;
42104;SDS011;61464;51.472;5.712;2022-09-24T06:30:59;47.75;;;28.65;;
42104;SDS011;61464;51.472;5.712;2022-09-24T06:33:26;45.65;;;29.08;;
42104;SDS011;61464;51.472;5.712;2022-09-24T06:35:52;46.00;;;28.08;;
42104;SDS011;61464;51.472;5.712;2022-09-24T06:38:18;40.65;;;27.58;;
42104;SDS011;61464;51.472;5.712;2022-09-24T06:40:45;40.50;;;26.83;;
42104;SDS011;61464;51.472;5.712;2022-09-24T06:43:14;41.97;;;26.98;;
42104;SDS011;61464;51.472;5.712;2022-09-24T06:45:44;45.25;;;29.10;;
42104;SDS011;61464;51.472;5.712;2022-09-24T06:48:11;42.00;;;26.95;;
42104;SDS011;61464;51.472;5.712;2022-09-24T06:50:42;40.13;;;27.15;;
42104;SDS011;61464;51.472;5.712;2022-09-24T06:53:09;42.85;;;27.23;;
42104;SDS011;61464;51.472;5.712;2022-09-24T06:55:36;41.03;;;26.70;;
42104;SDS011;61464;51.472;5.712;2022-09-24T06:58:04;38.80;;;25.02;;
42104;SDS011;61464;51.472;5.712;2022-09-24T07:00:36;39.63;;;25.25;;
42104;SDS011;61464;51.472;5.712;2022-09-24T07:03:03;37.85;;;24.45;;
42104;SDS011;61464;51.472;5.712;2022-09-24T07:05:31;39.70;;;25.52;;
42104;SDS011;61464;51.472;5.712;2022-09-24T07:07:57;39.85;;;25.15;;
42104;SDS011;61464;51.472;5.712;2022-09-24T07:10:23;43.67;;;26.08;;
42104;SDS011;61464;51.472;5.712;2022-09-24T07:12:50;38.85;;;26.00;;
42104;SDS011;61464;51.472;5.712;2022-09-24T07:15:16;37.15;;;24.60;;
42104;SDS011;61464;51.472;5.712;2022-09-24T07:17:42;36.85;;;24.75;;
42104;SDS011;61464;51.472;5.712;2022-09-24T07:20:07;37.25;;;23.77;;
42104;SDS011;61464;51.472;5.712;2022-09-24T07:22:40;36.33;;;24.23;;
42104;SDS011;61464;51.472;5.712;2022-09-24T07:25:08;40.78;;;25.02;;
42104;SDS011;61464;51.472;5.712;2022-09-24T07:27:36;36.13;;;24.90;;
42104;SDS011;61464;51.472;5.712;2022-09-24T07:30:06;35.80;;;23.23;;
42104;SDS011;61464;51.472;5.712;2022-09-24T07:32:33;35.10;;;23.98;;
42104;SDS011;61464;51.472;5.712;2022-09-24T07:34:59;36.60;;;23.17;;
42104;SDS011;61464;51.472;5.712;2022-09-24T07:37:25;33.63;;;22.98;;
42104;SDS011;61464;51.472;5.712;2022-09-24T07:39:51;39.85;;;23.20;;
42104;SDS011;61464;51.472;5.712;2022-09-24T07:42:17;36.30;;;21.80;;
42104;SDS011;61464;51.472;5.712;2022-09-24T07:44:43;32.78;;;22.30;;
42104;SDS011;61464;51.472;5.712;2022-09-24T07:47:09;33.20;;;22.08;;
42104;SDS011;61464;51.472;5.712;2022-09-24T07:49:35;31.17;;;21.13;;
42104;SDS011;61464;51.472;5.712;2022-09-24T07:52:02;33.13;;;22.25;;
42104;SDS011;61464;51.472;5.712;2022-09-24T07:54:28;32.58;;;21.42;;
42104;SDS011;61464;51.472;5.712;2022-09-24T07:56:55;32.90;;;22.08;;
42104;SDS011;61464;51.472;5.712;2022-09-24T07:59:21;31.58;;;21.20;;
42104;SDS011;61464;51.472;5.712;2022-09-24T08:01:47;29.27;;;20.73;;
42104;SDS011;61464;51.472;5.712;2022-09-24T08:04:13;34.53;;;20.08;;
42104;SDS011;61464;51.472;5.712;2022-09-24T08:06:38;30.15;;;21.02;;
42104;SDS011;61464;51.472;5.712;2022-09-24T08:09:04;33.88;;;20.73;;
42104;SDS011;61464;51.472;5.712;2022-09-24T08:11:30;30.63;;;19.77;;
42104;SDS011;61464;51.472;5.712;2022-09-24T08:13:57;31.25;;;21.63;;
42104;SDS011;61464;51.472;5.712;2022-09-24T08:16:23;30.55;;;21.23;;
42104;SDS011;61464;51.472;5.712;2022-09-24T08:18:50;30.48;;;20.15;;
42104;SDS011;61464;51.472;5.712;2022-09-24T08:21:17;30.55;;;20.95;;
42104;SDS011;61464;51.472;5.712;2022-09-24T08:23:44;29.38;;;20.13;;
42104;SDS011;61464;51.472;5.712;2022-09-24T08:26:10;30.70;;;20.52;;
42104;SDS011;61464;51.472;5.712;2022-09-24T08:28:36;30.92;;;21.15;;
42104;SDS011;61464;51.472;5.712;2022-09-24T08:31:06;28.38;;;18.85;;
42104;SDS011;61464;51.472;5.712;2022-09-24T08:33:35;32.42;;;20.75;;
42104;SDS011;61464;51.472;5.712;2022-09-24T08:36:03;31.17;;;21.13;;
42104;SDS011;61464;51.472;5.712;2022-09-24T08:38:33;30.67;;;20.45;;
42104;SDS011;61464;51.472;5.712;2022-09-24T08:41:02;31.90;;;20.55;;
42104;SDS011;61464;51.472;5.712;2022-09-24T08:46:43;29.80;;;19.70;;
42104;SDS011;61464;51.472;5.712;2022-09-24T08:49:35;29.65;;;20.98;;
42104;SDS011;61464;51.472;5.712;2022-09-24T08:54:59;29.10;;;19.88;;
42104;SDS011;61464;51.472;5.712;2022-09-24T08:57:47;27.92;;;18.85;;
42104;SDS011;61464;51.472;5.712;2022-09-24T09:00:39;30.38;;;19.38;;
42104;SDS011;61464;51.472;5.712;2022-09-24T09:03:25;26.90;;;19.48;;
42104;SDS011;61464;51.472;5.712;2022-09-24T09:09:03;33.03;;;21.88;;
42104;SDS011;61464;51.472;5.712;2022-09-24T09:11:45;31.55;;;22.05;;
42104;SDS011;61464;51.472;5.712;2022-09-24T09:17:39;31.10;;;21.65;;
42104;SDS011;61464;51.472;5.712;2022-09-24T09:20:26;27.95;;;18.35;;
42104;SDS011;61464;51.472;5.712;2022-09-24T09:23:12;27.08;;;19.98;;
42104;SDS011;61464;51.472;5.712;2022-09-24T09:26:07;31.75;;;20.33;;
42104;SDS011;61464;51.472;5.712;2022-09-24T09:28:35;27.40;;;18.88;;
42104;SDS011;61464;51.472;5.712;2022-09-24T09:42:31;25.13;;;17.60;;
42104;SDS011;61464;51.472;5.712;2022-09-24T09:45:01;22.88;;;16.92;;
42104;SDS011;61464;51.472;5.712;2022-09-24T09:47:42;23.73;;;16.00;;
42104;SDS011;61464;51.472;5.712;2022-09-24T09:50:27;23.92;;;17.05;;
42104;SDS011;61464;51.472;5.712;2022-09-24T09:53:16;25.90;;;17.95;;
42104;SDS011;61464;51.472;5.712;2022-09-24T09:55:56;31.98;;;20.70;;
42104;SDS011;61464;51.472;5.712;2022-09-24T10:06:08;20.70;;;15.68;;
42104;SDS011;61464;51.472;5.712;2022-09-24T10:08:38;19.90;;;15.07;;
42104;SDS011;61464;51.472;5.712;2022-09-24T10:11:04;20.42;;;15.23;;
42104;SDS011;61464;51.472;5.712;2022-09-24T10:13:37;19.90;;;14.77;;
42104;SDS011;61464;51.472;5.712;2022-09-24T10:16:03;23.27;;;15.27;;
42104;SDS011;61464;51.472;5.712;2022-09-24T10:18:45;24.33;;;15.10;;
42104;SDS011;61464;51.472;5.712;2022-09-24T10:21:30;20.35;;;13.90;;
42104;SDS011;61464;51.472;5.712;2022-09-24T10:24:00;19.80;;;14.02;;
42104;SDS011;61464;51.472;5.712;2022-09-24T10:26:40;20.77;;;14.23;;
42104;SDS011;61464;51.472;5.712;2022-09-24T10:29:11;19.33;;;13.65;;
42104;SDS011;61464;51.472;5.712;2022-09-24T10:32:18;20.77;;;14.68;;
42104;SDS011;61464;51.472;5.712;2022-09-24T10:34:56;20.15;;;14.80;;
42104;SDS011;61464;51.472;5.712;2022-09-24T10:37:25;21.10;;;13.25;;
42104;SDS011;61464;51.472;5.712;2022-09-24T10:39:56;19.83;;;12.90;;
42104;SDS011;61464;51.472;5.712;2022-09-24T10:42:23;16.52;;;12.63;;
42104;SDS011;61464;51.472;5.712;2022-09-24T10:44:51;17.60;;;12.32;;
42104;SDS011;61464;51.472;5.712;2022-09-24T10:50:18;20.77;;;13.18;;
42104;SDS011;61464;51.472;5.712;2022-09-24T10:53:01;17.42;;;13.02;;
42104;SDS011;61464;51.472;5.712;2022-09-24T10:55:38;17.15;;;12.48;;
42104;SDS011;61464;51.472;5.712;2022-09-24T10:58:57;18.50;;;12.07;;
42104;SDS011;61464;51.472;5.712;2022-09-24T11:13:40;16.38;;;10.93;;
42104;SDS011;61464;51.472;5.712;2022-09-24T11:30:16;14.63;;;10.55;;
42104;SDS011;61464;51.472;5.712;2022-09-24T11:39:20;17.10;;;10.63;;
42104;SDS011;61464;51.472;5.712;2022-09-24T11:42:21;14.55;;;9.38;;
42104;SDS011;61464;51.472;5.712;2022-09-24T12:01:36;11.68;;;9.40;;
42104;SDS011;61464;51.472;5.712;2022-09-24T12:04:14;11.90;;;9.35;;
42104;SDS011;61464;51.472;5.712;2022-09-24T12:07:01;13.77;;;9.02;;
42104;SDS011;61464;51.472;5.712;2022-09-24T12:15:11;12.90;;;8.63;;
42104;SDS011;61464;51.472;5.712;2022-09-24T12:18:05;12.30;;;8.95;;
42104;SDS011;61464;51.472;5.712;2022-09-24T12:20:47;11.80;;;8.50;;
42104;SDS011;61464;51.472;5.712;2022-09-24T12:23:24;11.45;;;8.02;;
42104;SDS011;61464;51.472;5.712;2022-09-24T12:25:53;11.65;;;7.93;;
42104;SDS011;61464;51.472;5.712;2022-09-24T12:28:23;14.98;;;9.27;;
42104;SDS011;61464;51.472;5.712;2022-09-24T12:31:18;13.52;;;9.40;;
42104;SDS011;61464;51.472;5.712;2022-09-24T12:34:39;15.45;;;10.60;;
42104;SDS011;61464;51.472;5.712;2022-09-24T12:38:23;16.23;;;11.07;;
42104;SDS011;61464;51.472;5.712;2022-09-24T12:43:51;17.90;;;12.35;;
42104;SDS011;61464;51.472;5.712;2022-09-24T12:46:37;18.50;;;13.13;;
42104;SDS011;61464;51.472;5.712;2022-09-24T12:49:31;20.25;;;13.70;;
42104;SDS011;61464;51.472;5.712;2022-09-24T12:55:02;19.10;;;13.75;;
42104;SDS011;61464;51.472;5.712;2022-09-24T12:57:40;18.08;;;12.93;;
42104;SDS011;61464;51.472;5.712;2022-09-24T13:06:48;17.88;;;12.57;;
42104;SDS011;61464;51.472;5.712;2022-09-24T13:08:58;14.15;;;9.80;;
42104;SDS011;61464;51.472;5.712;2022-09-24T13:11:31;14.65;;;9.45;;
42104;SDS011;61464;51.472;5.712;2022-09-24T13:22:05;21.10;;;14.05;;
42104;SDS011;61464;51.472;5.712;2022-09-24T13:24:51;17.95;;;13.18;;
42104;SDS011;61464;51.472;5.712;2022-09-24T13:27:53;17.63;;;12.57;;
42104;SDS011;61464;51.472;5.712;2022-09-24T13:35:58;20.90;;;12.27;;
42104;SDS011;61464;51.472;5.712;2022-09-24T13:38:37;16.60;;;12.40;;
42104;SDS011;61464;51.472;5.712;2022-09-24T13:41:26;16.15;;;11.18;;
42104;SDS011;61464;51.472;5.712;2022-09-24T13:44:16;17.98;;;12.38;;
42104;SDS011;61464;51.472;5.712;2022-09-24T13:50:13;17.25;;;10.40;;
42104;SDS011;61464;51.472;5.712;2022-09-24T13:53:04;13.80;;;9.70;;
42104;SDS011;61464;51.472;5.712;2022-09-24T13:55:53;16.23;;;11.20;;
42104;SDS011;61464;51.472;5.712;2022-09-24T13:58:27;16.20;;;11.55;;
42104;SDS011;61464;51.472;5.712;2022-09-24T14:00:58;16.27;;;11.53;;
42104;SDS011;61464;51.472;5.712;2022-09-24T14:03:31;16.50;;;11.45;;
42104;SDS011;61464;51.472;5.712;2022-09-24T14:05:59;13.85;;;9.88;;
42104;SDS011;61464;51.472;5.712;2022-09-24T14:08:33;13.98;;;10.10;;
42104;SDS011;61464;51.472;5.712;2022-09-24T14:11:11;15.20;;;9.27;;
42104;SDS011;61464;51.472;5.712;2022-09-24T14:13:50;14.60;;;9.60;;
42104;SDS011;61464;51.472;5.712;2022-09-24T14:16:19;12.48;;;8.43;;
42104;SDS011;61464;51.472;5.712;2022-09-24T14:18:59;12.50;;;8.68;;
42104;SDS011;61464;51.472;5.712;2022-09-24T14:21:34;11.38;;;7.63;;
42104;SDS011;61464;51.472;5.712;2022-09-24T14:29:28;11.43;;;7.28;;
42104;SDS011;61464;51.472;5.712;2022-09-24T14:32:06;10.73;;;7.07;;
42104;SDS011;61464;51.472;5.712;2022-09-24T14:34:51;11.70;;;7.50;;
42104;SDS011;61464;51.472;5.712;2022-09-24T14:37:52;10.60;;;7.63;;
42104;SDS011;61464;51.472;5.712;2022-09-24T14:40:22;11.57;;;7.40;;
42104;SDS011;61464;51.472;5.712;2022-09-24T14:42:56;9.50;;;7.63;;
42104;SDS011;61464;51.472;5.712;2022-09-24T14:45:27;14.63;;;7.93;;
42104;SDS011;61464;51.472;5.712;2022-09-24T14:48:14;12.85;;;8.40;;
42104;SDS011;61464;51.472;5.712;2022-09-24T14:50:53;13.15;;;8.80;;
42104;SDS011;61464;51.472;5.712;2022-09-24T14:53:30;12.43;;;9.27;;
42104;SDS011;61464;51.472;5.712;2022-09-24T14:56:06;15.48;;;10.48;;
42104;SDS011;61464;51.472;5.712;2022-09-24T14:58:52;15.05;;;10.05;;
42104;SDS011;61464;51.472;5.712;2022-09-24T15:01:19;13.20;;;9.10;;
42104;SDS011;61464;51.472;5.712;2022-09-24T15:03:49;16.38;;;9.65;;
42104;SDS011;61464;51.472;5.712;2022-09-24T15:06:28;14.50;;;9.73;;
42104;SDS011;61464;51.472;5.712;2022-09-24T15:09:02;14.95;;;9.18;;
42104;SDS011;61464;51.472;5.712;2022-09-24T15:11:51;14.30;;;9.70;;
42104;SDS011;61464;51.472;5.712;2022-09-24T15:14:22;13.65;;;9.40;;
42104;SDS011;61464;51.472;5.712;2022-09-24T15:17:06;11.95;;;9.13;;
42104;SDS011;61464;51.472;5.712;2022-09-24T15:19:47;13.52;;;9.77;;
42104;SDS011;61464;51.472;5.712;2022-09-24T15:22:13;14.98;;;9.50;;
42104;SDS011;61464;51.472;5.712;2022-09-24T15:24:39;12.35;;;9.20;;
42104;SDS011;61464;51.472;5.712;2022-09-24T15:27:13;14.15;;;9.73;;
42104;SDS011;61464;51.472;5.712;2022-09-24T15:29:43;11.85;;;9.07;;
42104;SDS011;61464;51.472;5.712;2022-09-24T15:32:18;11.73;;;8.57;;
42104;SDS011;61464;51.472;5.712;2022-09-24T15:34:45;13.35;;;8.93;;
42104;SDS011;61464;51.472;5.712;2022-09-24T15:37:13;14.02;;;9.85;;
42104;SDS011;61464;51.472;5.712;2022-09-24T15:39:43;14.77;;;11.50;;
42104;SDS011;61464;51.472;5.712;2022-09-24T15:42:16;12.10;;;10.02;;
42104;SDS011;61464;51.472;5.712;2022-09-24T15:44:45;16.50;;;10.68;;
42104;SDS011;61464;51.472;5.712;2022-09-24T15:47:11;16.65;;;11.35;;
42104;SDS011;61464;51.472;5.712;2022-09-24T15:49:38;16.30;;;12.32;;
42104;SDS011;61464;51.472;5.712;2022-09-24T15:52:08;19.42;;;13.57;;
42104;SDS011;61464;51.472;5.712;2022-09-24T15:54:40;21.38;;;15.82;;
42104;SDS011;61464;51.472;5.712;2022-09-24T15:57:06;23.08;;;17.38;;
42104;SDS011;61464;51.472;5.712;2022-09-24T15:59:36;23.88;;;17.38;;
42104;SDS011;61464;51.472;5.712;2022-09-24T16:02:02;23.02;;;16.67;;
42104;SDS011;61464;51.472;5.712;2022-09-24T16:04:40;22.63;;;16.52;;
42104;SDS011;61464;51.472;5.712;2022-09-24T16:07:06;21.58;;;16.15;;
42104;SDS011;61464;51.472;5.712;2022-09-24T16:09:32;22.48;;;16.55;;
42104;SDS011;61464;51.472;5.712;2022-09-24T16:11:58;22.90;;;17.35;;
42104;SDS011;61464;51.472;5.712;2022-09-24T16:14:24;22.33;;;17.30;;
42104;SDS011;61464;51.472;5.712;2022-09-24T16:16:50;26.77;;;17.42;;
42104;SDS011;61464;51.472;5.712;2022-09-24T16:19:16;21.65;;;17.10;;
42104;SDS011;61464;51.472;5.712;2022-09-24T16:21:42;23.73;;;16.17;;
42104;SDS011;61464;51.472;5.712;2022-09-24T16:24:08;24.63;;;16.90;;
42104;SDS011;61464;51.472;5.712;2022-09-24T16:26:34;20.63;;;15.82;;
42104;SDS011;61464;51.472;5.712;2022-09-24T16:29:01;23.42;;;15.70;;
42104;SDS011;61464;51.472;5.712;2022-09-24T16:31:29;23.75;;;15.90;;
42104;SDS011;61464;51.472;5.712;2022-09-24T16:33:56;21.33;;;15.82;;
42104;SDS011;61464;51.472;5.712;2022-09-24T16:36:21;21.80;;;14.45;;
42104;SDS011;61464;51.472;5.712;2022-09-24T16:38:47;19.65;;;15.02;;
42104;SDS011;61464;51.472;5.712;2022-09-24T16:41:14;18.58;;;13.05;;
42104;SDS011;61464;51.472;5.712;2022-09-24T16:43:40;19.45;;;13.98;;
42104;SDS011;61464;51.472;5.712;2022-09-24T16:46:07;18.38;;;13.77;;
42104;SDS011;61464;51.472;5.712;2022-09-24T16:48:34;20.10;;;14.50;;
42104;SDS011;61464;51.472;5.712;2022-09-24T16:51:01;20.85;;;14.02;;
42104;SDS011;61464;51.472;5.712;2022-09-24T16:53:35;16.98;;;12.30;;
42104;SDS011;61464;51.472;5.712;2022-09-24T16:56:05;17.42;;;12.50;;
42104;SDS011;61464;51.472;5.712;2022-09-24T16:58:35;20.23;;;13.27;;
42104;SDS011;61464;51.472;5.712;2022-09-24T17:01:11;17.45;;;12.30;;
42104;SDS011;61464;51.472;5.712;2022-09-24T17:03:39;17.52;;;11.90;;
42104;SDS011;61464;51.472;5.712;2022-09-24T17:06:05;14.90;;;10.48;;
42104;SDS011;61464;51.472;5.712;2022-09-24T17:08:33;15.93;;;10.90;;
42104;SDS011;61464;51.472;5.712;2022-09-24T17:11:21;14.90;;;10.70;;
42104;SDS011;61464;51.472;5.712;2022-09-24T17:13:47;14.82;;;10.85;;
42104;SDS011;61464;51.472;5.712;2022-09-24T17:16:13;15.18;;;10.35;;
42104;SDS011;61464;51.472;5.712;2022-09-24T17:18:40;14.77;;;10.25;;
42104;SDS011;61464;51.472;5.712;2022-09-24T17:21:07;13.93;;;10.57;;